Time;durP1;ratioP1;P1;durP2;ratioP2;P2;SDS_P1;SDS_P2;PMS_P1;PMS_P2;Temp;Humidity;BMP_temperature;BMP_pressure;BME280_temperature;BME280_humidity;BME280_pressure;Samples;Min_cycle;Max_cycle;Signal;HPM_P1;HPM_P2
2022/05/15 00:01:19;;;;;;;;;;;20.30;99.90;;;;;;5073775;28;19943;-76
2022/05/15 00:03:45;;;;;;;;;;;20.40;99.90;;;;;;5073115;28;20271;-75
2022/05/15 00:06:12;;;;;;;;;;;20.40;99.90;;;;;;5072781;28;19936;-75
2022/05/15 00:08:39;;;;;;;;;;;20.50;99.90;;;;;;5073257;28;19976;-77
2022/05/15 00:11:06;;;;;;;;;;;20.60;99.90;;;;;;5073297;28;20267;-75
2022/05/15 00:13:33;;;;;;;;;;;20.60;99.90;;;;;;5073121;28;19908;-74
2022/05/15 00:16:00;;;;;;;;;;;20.60;99.90;;;;;;5073317;28;19951;-75
2022/05/15 00:18:27;;;;;;;;;;;20.70;99.90;;;;;;5073202;28;19908;-75
2022/05/15 00:20:54;;;;;;;;;;;20.70;99.90;;;;;;5072742;28;19995;-74
2022/05/15 00:23:21;;;;;;;;;;;20.90;99.90;;;;;;5073096;28;19908;-74
2022/05/15 00:25:48;;;;;;;;;;;20.90;99.90;;;;;;5072865;28;19920;-77
2022/05/15 00:28:15;;;;;;;;;;;20.90;99.90;;;;;;5073100;28;19916;-74
2022/05/15 00:30:42;;;;;;;;;;;21.00;99.90;;;;;;5073164;28;19932;-73
2022/05/15 00:33:09;;;;;;;;;;;21.10;99.90;;;;;;5072972;28;19909;-75
2022/05/15 00:35:37;;;;;;;;;;;21.20;99.90;;;;;;5072135;28;19909;-79
2022/05/15 00:38:04;;;;;;;;;;;21.20;99.90;;;;;;5072957;28;19912;-75
2022/05/15 00:40:31;;;;;;;;;;;21.30;99.90;;;;;;5072885;28;19951;-76
2022/05/15 00:42:58;;;;;;;;;;;21.30;99.90;;;;;;5073029;28;20007;-76
2022/05/15 00:45:24;;;;;;;;;;;21.40;99.90;;;;;;5072987;28;20286;-79
2022/05/15 00:47:51;;;;;;;;;;;21.40;99.90;;;;;;5072877;28;19935;-78
2022/05/15 00:50:22;;;;;;;;;;;21.50;99.90;;;;;;5072111;28;19928;-80
2022/05/15 00:52:51;;;;;;;;;;;21.40;99.90;;;;;;5072922;28;20406;-81
2022/05/15 00:55:22;;;;;;;;;;;21.50;99.90;;;;;;5073216;28;19965;-78
2022/05/15 00:57:53;;;;;;;;;;;21.50;99.90;;;;;;5071373;28;19909;-80
2022/05/15 01:00:25;;;;;;;;;;;21.50;99.90;;;;;;5072957;28;19909;-75
2022/05/15 01:02:56;;;;;;;;;;;21.50;99.90;;;;;;5071510;28;19915;-75
2022/05/15 01:05:23;;;;;;;;;;;21.70;99.90;;;;;;5072214;28;20373;-74
2022/05/15 01:07:49;;;;;;;;;;;21.70;99.90;;;;;;5072253;28;19915;-74
2022/05/15 01:10:16;;;;;;;;;;;21.90;99.90;;;;;;5072689;28;19916;-74
2022/05/15 01:12:43;;;;;;;;;;;21.90;99.90;;;;;;5072833;28;19931;-74
2022/05/15 01:15:11;;;;;;;;;;;21.90;99.90;;;;;;5072681;28;19908;-74
2022/05/15 01:17:38;;;;;;;;;;;22.00;99.90;;;;;;5073788;28;19908;-74
2022/05/15 01:20:09;;;;;;;;;;;22.10;99.90;;;;;;5076510;28;19908;-74
2022/05/15 01:22:36;;;;;;;;;;;22.20;99.90;;;;;;5075134;28;19909;-74
2022/05/15 01:25:12;;;;;;;;;;;22.30;99.90;;;;;;5076325;28;19916;-74
2022/05/15 01:27:38;;;;;;;;;;;22.30;99.90;;;;;;5076290;28;20335;-75
2022/05/15 01:30:05;;;;;;;;;;;22.30;99.90;;;;;;5076464;28;20314;-74
2022/05/15 01:32:32;;;;;;;;;;;22.40;99.90;;;;;;5076208;28;19940;-74
2022/05/15 01:34:59;;;;;;;;;;;22.40;99.90;;;;;;5076321;28;19909;-75
2022/05/15 01:37:26;;;;;;;;;;;22.60;99.90;;;;;;5076313;28;20325;-74
2022/05/15 01:39:52;;;;;;;;;;;22.60;99.90;;;;;;5075937;28;19953;-78
2022/05/15 01:42:19;;;;;;;;;;;22.70;99.90;;;;;;5075982;28;19909;-74
2022/05/15 01:44:45;;;;;;;;;;;22.70;99.90;;;;;;5075994;28;19924;-74
2022/05/15 01:47:12;;;;;;;;;;;22.70;99.90;;;;;;5076058;28;19908;-76
2022/05/15 01:49:39;;;;;;;;;;;22.70;99.90;;;;;;5075547;28;19912;-75
2022/05/15 01:52:06;;;;;;;;;;;22.70;99.90;;;;;;5075968;28;19912;-75
2022/05/15 01:54:32;;;;;;;;;;;22.70;99.90;;;;;;5075767;28;20000;-74
2022/05/15 01:56:59;;;;;;;;;;;22.60;99.90;;;;;;5075730;28;19909;-75
2022/05/15 01:59:25;;;;;;;;;;;22.60;99.90;;;;;;5075793;28;20355;-75
2022/05/15 02:01:52;;;;;;;;;;;22.60;99.90;;;;;;5075561;28;19909;-75
2022/05/15 02:04:19;;;;;;;;;;;22.60;99.90;;;;;;5075863;28;19971;-75
2022/05/15 02:06:45;;;;;;;;;;;22.60;99.90;;;;;;5075761;28;20363;-75
2022/05/15 02:09:12;;;;;;;;;;;22.80;99.90;;;;;;5075532;28;19909;-75
2022/05/15 02:11:39;;;;;;;;;;;22.70;99.90;;;;;;5075343;28;20007;-76
2022/05/15 02:14:06;;;;;;;;;;;22.80;99.90;;;;;;5075462;28;19909;-75
2022/05/15 02:16:33;;;;;;;;;;;22.70;99.90;;;;;;5075448;28;19995;-75
2022/05/15 02:19:00;;;;;;;;;;;22.60;99.90;;;;;;5075380;28;19943;-74
2022/05/15 02:21:26;;;;;;;;;;;22.60;99.90;;;;;;5074937;28;20313;-74
2022/05/15 02:23:53;;;;;;;;;;;22.60;99.90;;;;;;5074983;28;19923;-75
2022/05/15 02:26:19;;;;;;;;;;;22.60;99.90;;;;;;5075013;28;19912;-74
2022/05/15 02:28:46;;;;;;;;;;;22.60;99.90;;;;;;5073948;28;19915;-76
2022/05/15 02:31:13;;;;;;;;;;;22.70;99.90;;;;;;5075191;28;19912;-74
2022/05/15 02:33:39;;;;;;;;;;;22.80;99.90;;;;;;5074991;28;19909;-75
2022/05/15 02:36:06;;;;;;;;;;;22.90;99.90;;;;;;5075028;28;19913;-75
2022/05/15 02:38:33;;;;;;;;;;;22.90;99.90;;;;;;5075090;28;20352;-76
2022/05/15 02:41:00;;;;;;;;;;;23.00;99.90;;;;;;5075395;28;19916;-76
2022/05/15 02:43:26;;;;;;;;;;;23.00;99.90;;;;;;5074909;28;19995;-76
2022/05/15 02:45:54;;;;;;;;;;;23.00;99.90;;;;;;5074582;28;19913;-77
2022/05/15 02:51:06;;;;;;;;;;;23.00;99.90;;;;;;5074718;28;20138;-79
2022/05/15 02:53:37;;;;;;;;;;;23.10;99.90;;;;;;5074579;28;19909;-75
2022/05/15 02:56:07;;;;;;;;;;;23.10;99.90;;;;;;5074592;28;19908;-78
2022/05/15 02:58:34;;;;;;;;;;;23.10;99.90;;;;;;5073478;28;19908;-78
2022/05/15 03:01:00;;;;;;;;;;;23.10;99.90;;;;;;5074564;28;19915;-76
2022/05/15 03:03:28;;;;;;;;;;;23.20;99.90;;;;;;5074383;28;20007;-79
2022/05/15 03:05:55;;;;;;;;;;;23.20;99.90;;;;;;5074020;28;19912;-76
2022/05/15 03:08:21;;;;;;;;;;;23.30;99.90;;;;;;5074541;28;19988;-76
2022/05/15 03:10:48;;;;;;;;;;;23.40;99.90;;;;;;5074354;28;19908;-80
2022/05/15 03:13:15;;;;;;;;;;;23.20;99.90;;;;;;5074308;28;19951;-77
2022/05/15 03:15:41;;;;;;;;;;;23.20;99.90;;;;;;5074063;28;19908;-80
2022/05/15 03:18:08;;;;;;;;;;;23.10;99.90;;;;;;5074194;28;19916;-79
2022/05/15 03:20:35;;;;;;;;;;;23.20;99.90;;;;;;5074165;28;19909;-79
2022/05/15 03:23:01;;;;;;;;;;;23.20;99.90;;;;;;5074182;28;19908;-81
2022/05/15 03:25:30;;;;;;;;;;;23.20;99.90;;;;;;5073936;28;20354;-77
2022/05/15 03:27:57;;;;;;;;;;;23.20;99.90;;;;;;5073944;28;19908;-80
2022/05/15 03:30:24;;;;;;;;;;;23.20;99.90;;;;;;5074059;28;19912;-76
2022/05/15 03:32:50;;;;;;;;;;;23.20;99.90;;;;;;5073951;28;19908;-75
2022/05/15 03:35:17;;;;;;;;;;;23.30;99.90;;;;;;5073961;28;19962;-80
2022/05/15 03:37:44;;;;;;;;;;;23.30;99.90;;;;;;5073649;28;20319;-77
2022/05/15 03:40:11;;;;;;;;;;;23.30;99.90;;;;;;5073324;28;19962;-80
2022/05/15 03:42:38;;;;;;;;;;;23.40;99.90;;;;;;5073914;28;19912;-81
2022/05/15 03:45:05;;;;;;;;;;;23.40;99.90;;;;;;5073643;28;19916;-80
2022/05/15 03:47:31;;;;;;;;;;;23.30;99.90;;;;;;5073348;28;19954;-77
2022/05/15 03:50:01;;;;;;;;;;;23.30;99.90;;;;;;5073429;28;19916;-79
2022/05/15 03:52:28;;;;;;;;;;;23.30;99.90;;;;;;5073510;28;19912;-81
2022/05/15 03:54:55;;;;;;;;;;;23.20;99.90;;;;;;5073477;28;20382;-80
2022/05/15 03:57:22;;;;;;;;;;;23.20;99.90;;;;;;5073510;28;19908;-76
2022/05/15 03:59:49;;;;;;;;;;;23.20;99.90;;;;;;5073373;28;19957;-78
2022/05/15 04:02:15;;;;;;;;;;;23.10;99.90;;;;;;5073537;28;19909;-78
2022/05/15 04:04:42;;;;;;;;;;;23.10;99.90;;;;;;5073311;28;20382;-81
2022/05/15 04:07:09;;;;;;;;;;;23.10;99.90;;;;;;5073370;28;19909;-74
2022/05/15 04:09:38;;;;;;;;;;;23.20;99.90;;;;;;5073001;28;19928;-79
2022/05/15 04:12:05;;;;;;;;;;;23.10;99.90;;;;;;5073310;28;20428;-80
2022/05/15 04:14:31;;;;;;;;;;;23.20;99.90;;;;;;5073229;28;19909;-80
2022/05/15 04:16:58;;;;;;;;;;;23.20;99.90;;;;;;5073253;28;20367;-78
2022/05/15 04:19:24;;;;;;;;;;;23.10;99.90;;;;;;5073397;28;19908;-79
2022/05/15 04:21:51;;;;;;;;;;;23.10;99.90;;;;;;5073188;28;19908;-78
2022/05/15 04:24:18;;;;;;;;;;;23.10;99.90;;;;;;5073028;28;19916;-79
2022/05/15 04:26:46;;;;;;;;;;;23.10;99.90;;;;;;5073269;28;19908;-79
2022/05/15 04:29:13;;;;;;;;;;;23.10;99.90;;;;;;5073212;28;20309;-79
2022/05/15 04:31:40;;;;;;;;;;;23.10;99.90;;;;;;5073010;28;19913;-79
2022/05/15 04:34:07;;;;;;;;;;;23.10;99.90;;;;;;5073030;28;19913;-79
2022/05/15 04:36:34;;;;;;;;;;;23.10;99.90;;;;;;5073148;28;19908;-74
2022/05/15 04:39:01;;;;;;;;;;;23.10;99.90;;;;;;5072960;28;19915;-77
2022/05/15 04:41:28;;;;;;;;;;;23.10;99.90;;;;;;5072871;28;19962;-77
2022/05/15 04:43:55;;;;;;;;;;;23.00;99.90;;;;;;5073033;28;19920;-79
2022/05/15 04:46:22;;;;;;;;;;;23.00;99.90;;;;;;5072556;28;19991;-79
2022/05/15 04:48:49;;;;;;;;;;;23.00;99.90;;;;;;5073145;28;19944;-75
2022/05/15 04:51:16;;;;;;;;;;;23.00;99.90;;;;;;5072804;28;20286;-75
2022/05/15 04:53:42;;;;;;;;;;;22.90;99.90;;;;;;5076133;28;19908;-74
2022/05/15 04:56:09;;;;;;;;;;;22.80;99.90;;;;;;5076920;28;19908;-75
2022/05/15 04:58:36;;;;;;;;;;;22.70;99.90;;;;;;5077078;28;20019;-76
2022/05/15 05:01:03;;;;;;;;;;;22.70;99.90;;;;;;5076428;28;20315;-75
2022/05/15 05:03:29;;;;;;;;;;;22.60;99.90;;;;;;5076867;28;19990;-75
2022/05/15 05:05:56;;;;;;;;;;;22.50;99.90;;;;;;5076847;28;19995;-75
2022/05/15 05:08:22;;;;;;;;;;;22.60;99.90;;;;;;5076742;28;19908;-75
2022/05/15 05:10:49;;;;;;;;;;;22.50;99.90;;;;;;5075248;28;20223;-75
2022/05/15 05:13:16;;;;;;;;;;;22.40;99.90;;;;;;5076673;28;19963;-75
2022/05/15 05:15:42;;;;;;;;;;;22.30;99.90;;;;;;5075839;28;20314;-75
2022/05/15 05:18:09;;;;;;;;;;;22.20;99.90;;;;;;5076514;28;20397;-74
2022/05/15 05:20:36;;;;;;;;;;;22.10;99.90;;;;;;5076567;28;19912;-73
2022/05/15 05:23:03;;;;;;;;;;;22.10;99.90;;;;;;5076364;28;19995;-74
2022/05/15 05:25:30;;;;;;;;;;;22.00;99.90;;;;;;5076207;28;19961;-74
2022/05/15 05:27:56;;;;;;;;;;;21.90;99.90;;;;;;5076247;28;19916;-75
2022/05/15 05:30:24;;;;;;;;;;;21.80;99.90;;;;;;5075806;28;19908;-76
2022/05/15 05:32:51;;;;;;;;;;;21.70;99.90;;;;;;5076301;28;19915;-78
2022/05/15 05:35:18;;;;;;;;;;;21.50;99.90;;;;;;5076262;28;19912;-80
2022/05/15 05:37:45;;;;;;;;;;;21.30;99.90;;;;;;5085650;28;19954;-78
2022/05/15 05:40:12;;;;;;;;;;;21.20;99.90;;;;;;5076075;28;19909;-77
2022/05/15 05:42:39;;;;;;;;;;;21.10;99.90;;;;;;5076123;28;19916;-80
2022/05/15 05:45:06;;;;;;;;;;;21.10;99.90;;;;;;5076110;28;20007;-75
2022/05/15 05:47:33;;;;;;;;;;;21.00;99.90;;;;;;5108467;28;20409;-78
2022/05/15 05:50:00;;;;;;;;;;;21.00;99.90;;;;;;5075750;28;19920;-74
2022/05/15 05:52:27;;;;;;;;;;;20.90;99.90;;;;;;5075798;28;20383;-75
2022/05/15 05:54:53;;;;;;;;;;;20.90;99.90;;;;;;5075780;28;19909;-74
2022/05/15 05:57:20;;;;;;;;;;;20.80;99.90;;;;;;5075809;28;19908;-75
2022/05/15 05:59:47;;;;;;;;;;;20.80;99.90;;;;;;5075555;28;19958;-78
2022/05/15 06:02:14;;;;;;;;;;;20.80;99.90;;;;;;5075687;28;19961;-79
2022/05/15 06:04:43;;;;;;;;;;;20.80;99.90;;;;;;5108070;28;19917;-80
2022/05/15 06:07:11;;;;;;;;;;;20.80;99.90;;;;;;5075794;28;20256;-79
2022/05/15 06:09:38;;;;;;;;;;;20.70;99.90;;;;;;5075477;28;19934;-78
2022/05/15 06:12:05;;;;;;;;;;;20.70;99.90;;;;;;5108246;28;19970;-80
2022/05/15 06:14:32;;;;;;;;;;;20.80;99.90;;;;;;5075601;28;20386;-78
2022/05/15 06:16:59;;;;;;;;;;;20.70;99.90;;;;;;5075607;28;19975;-79
2022/05/15 06:19:29;;;;;;;;;;;20.70;99.90;;;;;;5075500;28;19909;-79
2022/05/15 06:21:55;;;;;;;;;;;20.70;99.90;;;;;;5075295;28;19908;-80
2022/05/15 06:24:22;;;;;;;;;;;20.70;99.90;;;;;;5075230;28;20457;-79
2022/05/15 06:26:49;;;;;;;;;;;20.70;99.90;;;;;;5075360;28;19977;-79
2022/05/15 06:29:15;;;;;;;;;;;20.70;99.90;;;;;;5075249;28;19954;-79
2022/05/15 06:31:42;;;;;;;;;;;20.70;99.90;;;;;;5107448;28;20363;-74
2022/05/15 06:34:09;;;;;;;;;;;20.70;99.90;;;;;;5075073;28;19917;-77
2022/05/15 06:36:36;;;;;;;;;;;20.70;99.90;;;;;;5075182;28;20266;-79
2022/05/15 06:39:03;;;;;;;;;;;20.60;99.90;;;;;;5074972;28;19908;-76
2022/05/15 06:41:30;;;;;;;;;;;20.70;99.90;;;;;;5074958;28;19987;-74
2022/05/15 06:43:56;;;;;;;;;;;20.70;99.90;;;;;;5075096;28;20015;-77
2022/05/15 06:46:23;;;;;;;;;;;20.60;99.90;;;;;;5075134;27;20462;-76
2022/05/15 06:48:50;;;;;;;;;;;20.60;99.90;;;;;;5074946;28;19909;-79
2022/05/15 06:51:17;;;;;;;;;;;20.60;99.90;;;;;;5074714;28;19935;-78
2022/05/15 06:53:45;;;;;;;;;;;20.60;99.90;;;;;;5074528;28;19952;-75
2022/05/15 06:58:56;;;;;;;;;;;20.60;99.90;;;;;;5074828;28;19951;-77
2022/05/15 07:01:23;;;;;;;;;;;20.60;99.90;;;;;;5075135;28;19908;-74
2022/05/15 07:03:50;;;;;;;;;;;20.60;99.90;;;;;;5074313;28;19923;-75
2022/05/15 07:06:16;;;;;;;;;;;20.60;99.90;;;;;;5074455;28;19913;-73
2022/05/15 07:08:43;;;;;;;;;;;20.60;99.90;;;;;;5074488;28;19972;-79
2022/05/15 07:11:12;;;;;;;;;;;20.60;99.90;;;;;;5074387;28;19908;-79
2022/05/15 07:13:39;;;;;;;;;;;20.50;99.90;;;;;;5074084;28;20331;-79
2022/05/15 07:16:06;;;;;;;;;;;20.50;99.90;;;;;;5073555;28;20003;-80
2022/05/15 07:18:33;;;;;;;;;;;20.50;99.90;;;;;;5074274;28;19915;-77
2022/05/15 07:20:59;;;;;;;;;;;20.50;99.90;;;;;;5074317;28;20405;-77
2022/05/15 07:23:26;;;;;;;;;;;20.50;99.90;;;;;;5073991;28;19915;-80
2022/05/15 07:25:54;;;;;;;;;;;20.50;99.90;;;;;;5074012;28;19919;-79
2022/05/15 07:28:21;;;;;;;;;;;20.50;99.90;;;;;;5074035;28;19909;-80
2022/05/15 07:30:48;;;;;;;;;;;20.50;99.90;;;;;;5074033;27;19948;-80
2022/05/15 07:33:18;;;;;;;;;;;20.50;99.90;;;;;;5074078;28;19908;-80
2022/05/15 07:35:44;;;;;;;;;;;20.50;99.90;;;;;;5073830;28;19954;-79
2022/05/15 07:38:11;;;;;;;;;;;20.50;99.90;;;;;;5073928;28;20264;-79
2022/05/15 07:40:38;;;;;;;;;;;20.50;99.90;;;;;;5073506;28;19966;-80
2022/05/15 07:43:05;;;;;;;;;;;20.50;99.90;;;;;;5073870;28;19944;-76
2022/05/15 07:45:33;;;;;;;;;;;20.50;99.90;;;;;;5074563;28;19916;-77
2022/05/15 07:47:59;;;;;;;;;;;20.60;99.90;;;;;;5072524;28;20367;-75
2022/05/15 07:50:26;;;;;;;;;;;20.60;99.90;;;;;;5071473;28;20023;-78
2022/05/15 07:52:53;;;;;;;;;;;20.60;99.90;;;;;;5071775;28;19912;-79
2022/05/15 07:55:19;;;;;;;;;;;20.50;99.90;;;;;;5071220;28;19916;-74
2022/05/15 07:57:46;;;;;;;;;;;20.50;99.90;;;;;;5071272;28;20615;-80
2022/05/15 08:00:16;;;;;;;;;;;20.50;99.90;;;;;;5071061;28;19909;-79
2022/05/15 08:02:43;;;;;;;;;;;20.50;99.90;;;;;;5071007;28;19916;-79
2022/05/15 08:08:02;;;;;;;;;;;20.50;99.90;;;;;;5071473;28;19965;-78
2022/05/15 08:10:39;;;;;;;;;;;20.50;99.90;;;;;;5071901;28;20398;-79
2022/05/15 08:13:07;;;;;;;;;;;20.50;99.90;;;;;;5070664;28;19916;-78
2022/05/15 08:15:34;;;;;;;;;;;20.60;99.90;;;;;;5070607;28;19919;-78
2022/05/15 08:23:33;;;;;;;;;;;20.60;99.90;;;;;;5071149;28;20375;-76
2022/05/15 08:23:34;;;;;;;;;;;20.50;99.90;;;;;;5071010;28;19920;-79
2022/05/15 08:26:02;;;;;;;;;;;20.60;99.90;;;;;;5071000;28;19963;-78
2022/05/15 08:28:29;;;;;;;;;;;20.50;99.90;;;;;;5070154;28;19989;-79
2022/05/15 08:30:56;;;;;;;;;;;20.50;99.90;;;;;;5071001;28;19942;-78
2022/05/15 08:33:23;;;;;;;;;;;20.50;99.90;;;;;;5071151;28;19940;-77
2022/05/15 08:35:49;;;;;;;;;;;20.60;99.90;;;;;;5070979;28;19912;-77
2022/05/15 08:38:16;;;;;;;;;;;20.50;99.90;;;;;;5071180;28;19996;-79
2022/05/15 08:41:03;;;;;;;;;;;20.50;99.90;;;;;;5070667;28;19915;-78
2022/05/15 08:43:42;;;;;;;;;;;20.50;99.90;;;;;;5069989;28;20278;-76
2022/05/15 08:46:17;;;;;;;;;;;20.50;99.90;;;;;;5070881;28;19917;-80
2022/05/15 08:48:44;;;;;;;;;;;20.40;99.90;;;;;;5071042;28;19954;-79
2022/05/15 08:51:12;;;;;;;;;;;20.40;99.90;;;;;;5070826;28;19989;-78
2022/05/15 08:53:41;;;;;;;;;;;20.30;99.90;;;;;;5070033;28;19913;-78
2022/05/15 08:56:10;;;;;;;;;;;20.30;99.90;;;;;;5070813;28;19916;-79
2022/05/15 08:58:50;;;;;;;;;;;20.30;99.90;;;;;;5070338;28;20367;-79
2022/05/15 09:01:21;;;;;;;;;;;20.40;99.90;;;;;;5070780;28;19912;-80
2022/05/15 09:03:48;;;;;;;;;;;20.40;99.90;;;;;;5070655;28;19908;-80
2022/05/15 09:06:18;;;;;;;;;;;20.40;99.90;;;;;;5072843;28;19948;-80
2022/05/15 09:08:51;;;;;;;;;;;20.40;99.90;;;;;;5072802;28;19999;-80
2022/05/15 09:11:44;;;;;;;;;;;20.40;99.90;;;;;;5072784;28;19966;-80
2022/05/15 09:14:26;;;;;;;;;;;20.40;99.90;;;;;;5071500;28;19908;-79
2022/05/15 09:16:58;;;;;;;;;;;20.40;99.90;;;;;;5072615;28;19908;-80
2022/05/15 09:19:25;;;;;;;;;;;20.40;99.90;;;;;;5072696;28;19908;-79
2022/05/15 09:21:55;;;;;;;;;;;20.40;99.90;;;;;;5072627;28;19930;-80
2022/05/15 09:24:40;;;;;;;;;;;20.40;99.90;;;;;;5072593;28;19924;-79
2022/05/15 09:27:14;;;;;;;;;;;20.40;99.90;;;;;;5072571;28;19912;-78
2022/05/15 09:29:41;;;;;;;;;;;20.40;99.90;;;;;;5072159;28;19995;-78
2022/05/15 09:32:28;;;;;;;;;;;20.40;99.90;;;;;;5072519;28;19912;-78
2022/05/15 09:34:58;;;;;;;;;;;20.50;99.90;;;;;;5072110;28;19962;-79
2022/05/15 09:40:15;;;;;;;;;;;20.50;99.90;;;;;;5076330;28;19915;-80
2022/05/15 09:45:53;;;;;;;;;;;20.40;99.90;;;;;;5075933;28;20294;-79
2022/05/15 09:48:21;;;;;;;;;;;20.40;99.90;;;;;;5076138;28;19908;-80
2022/05/15 09:50:49;;;;;;;;;;;20.40;99.90;;;;;;5076027;28;19928;-81
2022/05/15 09:53:36;;;;;;;;;;;20.40;99.90;;;;;;5075825;28;19951;-80
2022/05/15 09:56:04;;;;;;;;;;;20.40;99.90;;;;;;5075992;28;19909;-76
2022/05/15 09:58:39;;;;;;;;;;;20.40;99.90;;;;;;5075135;28;20147;-75
2022/05/15 10:01:15;;;;;;;;;;;20.30;99.90;;;;;;5075858;28;19909;-74
2022/05/15 10:03:47;;;;;;;;;;;20.40;99.90;;;;;;5075568;28;20310;-74
2022/05/15 10:06:19;;;;;;;;;;;20.30;99.90;;;;;;5075730;28;20011;-75
2022/05/15 10:08:46;;;;;;;;;;;20.30;99.90;;;;;;5075552;28;19963;-75
2022/05/15 10:11:17;;;;;;;;;;;20.40;99.90;;;;;;5075714;28;19995;-75
2022/05/15 10:13:52;;;;;;;;;;;20.30;99.90;;;;;;5075526;28;19962;-74
2022/05/15 10:16:19;;;;;;;;;;;20.30;99.90;;;;;;5075588;28;20279;-75
2022/05/15 10:18:51;;;;;;;;;;;20.40;99.90;;;;;;5075664;28;19952;-75
2022/05/15 10:21:18;;;;;;;;;;;20.30;99.90;;;;;;5075564;28;19913;-75
2022/05/15 10:23:52;;;;;;;;;;;20.30;99.90;;;;;;5075172;28;19970;-75
2022/05/15 10:26:21;;;;;;;;;;;20.30;99.90;;;;;;5075478;28;19912;-75
2022/05/15 10:28:51;;;;;;;;;;;20.30;99.90;;;;;;5075421;28;19913;-74
2022/05/15 10:31:23;;;;;;;;;;;20.30;99.90;;;;;;5075374;28;19916;-74
2022/05/15 10:33:53;;;;;;;;;;;20.30;99.90;;;;;;5075095;28;20305;-74
2022/05/15 10:36:19;;;;;;;;;;;20.30;99.90;;;;;;5075224;28;19908;-74
2022/05/15 10:38:46;;;;;;;;;;;20.20;99.90;;;;;;5075312;28;19909;-74
2022/05/15 10:41:19;;;;;;;;;;;20.20;99.90;;;;;;5075176;28;19916;-74
2022/05/15 10:43:53;;;;;;;;;;;20.20;99.90;;;;;;5074757;28;20193;-74
2022/05/15 10:46:27;;;;;;;;;;;20.20;99.90;;;;;;5075052;28;19913;-75
2022/05/15 10:48:57;;;;;;;;;;;20.20;99.90;;;;;;5074908;28;19908;-74
2022/05/15 10:51:30;;;;;;;;;;;20.10;99.90;;;;;;5072392;28;20405;-74
2022/05/15 10:57:24;;;;;;;;;;;20.20;99.90;;;;;;5074840;28;19919;-74
2022/05/15 10:59:56;;;;;;;;;;;20.10;99.90;;;;;;5074670;28;20003;-74
2022/05/15 11:02:35;;;;;;;;;;;20.10;99.90;;;;;;5074764;28;19909;-76
2022/05/15 11:05:20;;;;;;;;;;;20.10;99.90;;;;;;5074525;28;19978;-75
2022/05/15 11:08:04;;;;;;;;;;;20.10;99.90;;;;;;5074341;28;20015;-75
2022/05/15 11:10:31;;;;;;;;;;;20.00;99.90;;;;;;5074593;28;19908;-75
2022/05/15 11:13:12;;;;;;;;;;;20.00;99.90;;;;;;5074646;28;19912;-74
2022/05/15 11:16:07;;;;;;;;;;;20.00;99.90;;;;;;5074353;28;19909;-74
2022/05/15 11:18:34;;;;;;;;;;;19.90;99.90;;;;;;5069687;28;19909;-75
2022/05/15 11:21:02;;;;;;;;;;;19.90;99.90;;;;;;5074322;28;20339;-74
2022/05/15 11:23:31;;;;;;;;;;;19.90;99.90;;;;;;5074269;28;19954;-76
2022/05/15 11:26:21;;;;;;;;;;;19.90;99.90;;;;;;5074168;28;19925;-74
2022/05/15 11:28:48;;;;;;;;;;;19.80;99.90;;;;;;5071195;28;19912;-74
2022/05/15 11:31:22;;;;;;;;;;;19.90;99.90;;;;;;5074174;28;20279;-74
2022/05/15 11:34:04;;;;;;;;;;;19.80;99.90;;;;;;5073850;28;20256;-73
2022/05/15 11:36:35;;;;;;;;;;;19.80;99.90;;;;;;5072669;28;19908;-76
2022/05/15 11:39:07;;;;;;;;;;;19.80;99.90;;;;;;5073941;28;20387;-74
2022/05/15 11:41:36;;;;;;;;;;;19.80;99.90;;;;;;5073863;28;19915;-77
2022/05/15 11:44:07;;;;;;;;;;;19.70;99.90;;;;;;5073832;28;19916;-75
2022/05/15 11:46:49;;;;;;;;;;;19.80;99.90;;;;;;5073930;28;19908;-75
2022/05/15 11:49:25;;;;;;;;;;;19.80;99.90;;;;;;5073611;28;19908;-76
2022/05/15 11:51:58;;;;;;;;;;;19.70;99.90;;;;;;5073576;28;19928;-74
2022/05/15 11:54:30;;;;;;;;;;;19.70;99.90;;;;;;5073710;28;20342;-74
2022/05/15 11:56:57;;;;;;;;;;;19.70;99.90;;;;;;5073588;28;20425;-73
2022/05/15 11:59:26;;;;;;;;;;;19.70;99.90;;;;;;5073583;28;19912;-73
2022/05/15 12:01:58;;;;;;;;;;;19.60;99.90;;;;;;5073104;28;20355;-74
2022/05/15 12:04:36;;;;;;;;;;;19.70;99.90;;;;;;5073568;28;19924;-76
2022/05/15 12:07:03;;;;;;;;;;;19.60;99.90;;;;;;5073477;28;20366;-73
2022/05/15 12:09:44;;;;;;;;;;;19.60;99.90;;;;;;5072802;28;19971;-75
2022/05/15 12:12:31;;;;;;;;;;;19.60;99.90;;;;;;5073463;28;20015;-74
2022/05/15 12:15:20;;;;;;;;;;;19.50;99.90;;;;;;5073720;28;20314;-75
2022/05/15 12:17:50;;;;;;;;;;;19.50;99.90;;;;;;5073352;28;19935;-73
2022/05/15 12:20:44;;;;;;;;;;;19.40;99.90;;;;;;5073536;28;19912;-73
2022/05/15 12:23:10;;;;;;;;;;;19.40;99.90;;;;;;5072338;28;19983;-73
2022/05/15 12:25:45;;;;;;;;;;;19.40;99.90;;;;;;5072516;28;20121;-74
2022/05/15 12:31:13;;;;;;;;;;;19.30;99.90;;;;;;5073370;28;19993;-73
2022/05/15 12:33:40;;;;;;;;;;;19.30;99.90;;;;;;5073186;28;19931;-73
2022/05/15 12:36:15;;;;;;;;;;;19.30;99.90;;;;;;5105804;28;20578;-73
2022/05/15 12:38:51;;;;;;;;;;;19.20;99.90;;;;;;5073065;28;19909;-73
2022/05/15 12:41:24;;;;;;;;;;;19.20;99.90;;;;;;5072657;28;19919;-73
2022/05/15 12:43:51;;;;;;;;;;;19.20;99.90;;;;;;5072587;28;20337;-73
2022/05/15 12:46:29;;;;;;;;;;;19.10;99.90;;;;;;5073333;28;19983;-74
2022/05/15 12:48:56;;;;;;;;;;;19.10;99.90;;;;;;5073189;28;19908;-72
2022/05/15 12:51:28;;;;;;;;;;;19.00;99.90;;;;;;5072871;28;19928;-73
2022/05/15 12:53:55;;;;;;;;;;;19.00;99.90;;;;;;5072821;28;19995;-73
2022/05/15 12:56:25;;;;;;;;;;;18.90;99.90;;;;;;5073070;28;20283;-74
2022/05/15 12:58:56;;;;;;;;;;;18.90;99.90;;;;;;5072784;28;19916;-73
2022/05/15 13:01:25;;;;;;;;;;;18.90;99.90;;;;;;5073162;28;19909;-74
2022/05/15 13:03:53;;;;;;;;;;;18.90;99.90;;;;;;5071408;28;19913;-73
2022/05/15 13:06:21;;;;;;;;;;;18.90;99.90;;;;;;5073061;28;19946;-76
2022/05/15 13:08:49;;;;;;;;;;;18.80;99.90;;;;;;5072914;28;19913;-75
2022/05/15 13:11:20;;;;;;;;;;;18.90;99.90;;;;;;5073011;28;19908;-76
2022/05/15 13:13:48;;;;;;;;;;;18.90;99.90;;;;;;5074447;28;19909;-77
2022/05/15 13:16:22;;;;;;;;;;;18.90;99.90;;;;;;5076878;28;20278;-74
2022/05/15 13:18:49;;;;;;;;;;;18.90;99.90;;;;;;5076707;28;19909;-74
2022/05/15 13:21:22;;;;;;;;;;;18.80;99.90;;;;;;5076828;28;19918;-73
2022/05/15 13:23:49;;;;;;;;;;;18.80;99.90;;;;;;5076348;28;19915;-73
2022/05/15 13:26:23;;;;;;;;;;;18.70;99.90;;;;;;5076554;28;19946;-75
2022/05/15 13:28:49;;;;;;;;;;;18.70;99.90;;;;;;5076476;28;19908;-74
2022/05/15 13:31:16;;;;;;;;;;;18.70;99.90;;;;;;5076530;28;19908;-74
2022/05/15 13:33:44;;;;;;;;;;;18.70;99.90;;;;;;5076366;28;19967;-76
2022/05/15 13:36:15;;;;;;;;;;;18.70;99.90;;;;;;5076504;28;20313;-80
2022/05/15 13:44:13;;;;;;;;;;;18.60;99.90;;;;;;5076529;28;20278;-74
2022/05/15 13:46:45;;;;;;;;;;;18.60;99.90;;;;;;5076273;28;19936;-77
2022/05/15 13:49:14;;;;;;;;;;;18.60;99.90;;;;;;5075991;28;19932;-74
2022/05/15 13:51:48;;;;;;;;;;;18.60;99.90;;;;;;5075703;28;20431;-80
2022/05/15 13:54:28;;;;;;;;;;;18.60;99.90;;;;;;5076095;28;19908;-81
2022/05/15 13:56:58;;;;;;;;;;;18.60;99.90;;;;;;5076030;28;19909;-75
2022/05/15 13:59:28;;;;;;;;;;;18.50;99.90;;;;;;5076058;28;19991;-80
2022/05/15 14:02:12;;;;;;;;;;;18.50;99.90;;;;;;5076152;28;20344;-74
2022/05/15 14:04:40;;;;;;;;;;;18.50;99.90;;;;;;5075746;28;20281;-74
2022/05/15 14:07:06;;;;;;;;;;;18.50;99.90;;;;;;5075712;28;19913;-77
2022/05/15 14:09:43;;;;;;;;;;;18.40;99.90;;;;;;5075755;28;19955;-75
2022/05/15 14:12:12;;;;;;;;;;;18.40;99.90;;;;;;5075803;28;19915;-79
2022/05/15 14:14:41;;;;;;;;;;;18.40;99.90;;;;;;5075655;28;20050;-78
2022/05/15 14:17:08;;;;;;;;;;;18.40;99.90;;;;;;5075714;28;19912;-78
2022/05/15 14:19:46;;;;;;;;;;;18.40;99.90;;;;;;5075517;28;19970;-79
2022/05/15 14:22:12;;;;;;;;;;;18.40;99.90;;;;;;5075554;28;19909;-79
2022/05/15 14:24:39;;;;;;;;;;;18.30;99.90;;;;;;5075465;28;19917;-77
2022/05/15 14:27:06;;;;;;;;;;;18.30;99.90;;;;;;5075546;28;20042;-75
2022/05/15 14:29:33;;;;;;;;;;;18.30;99.90;;;;;;5075320;28;19967;-80
2022/05/15 14:32:04;;;;;;;;;;;18.20;99.90;;;;;;5075485;28;19908;-79
2022/05/15 14:34:31;;;;;;;;;;;18.20;99.90;;;;;;5075514;28;19991;-78
2022/05/15 14:36:58;;;;;;;;;;;18.20;99.90;;;;;;5075240;28;19912;-77
2022/05/15 14:39:25;;;;;;;;;;;18.30;99.90;;;;;;5075262;28;20270;-76
2022/05/15 14:41:51;;;;;;;;;;;18.30;99.90;;;;;;5075084;28;19999;-76
2022/05/15 14:44:18;;;;;;;;;;;18.30;99.90;;;;;;5075209;28;19924;-78
2022/05/15 14:46:45;;;;;;;;;;;18.20;99.90;;;;;;5075186;28;19931;-74
2022/05/15 14:49:12;;;;;;;;;;;18.10;99.90;;;;;;5074878;28;19913;-75
2022/05/15 14:51:40;;;;;;;;;;;18.10;99.90;;;;;;5074703;28;19920;-77
2022/05/15 14:54:06;;;;;;;;;;;18.10;99.90;;;;;;5074999;28;19912;-77
2022/05/15 14:56:34;;;;;;;;;;;18.10;99.90;;;;;;5074975;28;19908;-77